Disclaimer

Please do not use the information listed here in-flight or in-navigation, as they are not provided to us by the airports but are provided by volunteers, so they might be outdated.

Search


Regions


Airport information page

Radio informations:
CAMPECHE TWR - 118.5 MHz

Airport informations:
Latitude: 19° 49' 00.46" N
Longitude: 090° 30' 01.13" W
Elevation: 34 feet - 10 meters
Operating hours: Remarks
Operating agency: Civil government, landing fees and diplomatic clearance may be required
Timezone: UTC-6(-5DT) - First Sunday in April to the last Saturday in October
Fuel: Jet A1, without icing nhibitor.

100/130 MIL Spec, low lead, aviation gasoline (BLUE)

Runway information:
16/34 - 8202 x 148 feet< - >2500 x 45 meters

Recent METARs:
MMCP 131344Z 16006KT 7SM FEW100 25/23 A2997 RMK 8/030
MMCP 131344Z 16006KT 7SM FEW100 25/23 A2997 RMK 8/030
MMCP 131443Z 12006KT 7SM FEW030 27/24 A2999 RMK SLP142 52010 906 8/100

Airport on the map: